createdAt,value
2023-03-06T00:00:58.839Z,100533.28
2023-03-06T00:02:30.447Z,100529.03
2023-03-06T00:04:02.179Z,100536.06
2023-03-06T00:05:33.831Z,100538.00
2023-03-06T00:07:05.658Z,100537.19
2023-03-06T00:08:37.283Z,100539.84
2023-03-06T00:10:13.178Z,100533.88
2023-03-06T00:11:44.761Z,100534.78
2023-03-06T00:13:19.160Z,100533.00
2023-03-06T00:14:50.805Z,100534.69
2023-03-06T00:16:23.174Z,100528.53
2023-03-06T00:17:55.261Z,100531.94
2023-03-06T00:19:27.489Z,100526.66
2023-03-06T00:20:59.155Z,100521.44
2023-03-06T00:22:30.805Z,100518.03
2023-03-06T00:24:02.393Z,100518.16
2023-03-06T00:25:39.007Z,100515.66
2023-03-06T00:27:10.706Z,100515.75
2023-03-06T00:28:42.280Z,100510.50
2023-03-06T00:30:15.600Z,100516.41
2023-03-06T00:31:48.002Z,100512.03
2023-03-06T00:33:19.667Z,100512.72
2023-03-06T00:34:51.900Z,100516.06
2023-03-06T00:36:23.556Z,100511.69
2023-03-06T00:37:55.152Z,100509.28
2023-03-06T00:39:26.854Z,100501.81
2023-03-06T00:41:00.042Z,100506.59
2023-03-06T00:42:33.370Z,100505.94
2023-03-06T00:44:05.230Z,100494.66
2023-03-06T00:45:37.002Z,100498.41
2023-03-06T00:47:08.899Z,100488.94
2023-03-06T00:48:40.420Z,100487.91
2023-03-06T00:50:12.246Z,100482.44
2023-03-06T00:51:43.810Z,100486.59
2023-03-06T00:53:15.600Z,100476.88
2023-03-06T00:54:47.211Z,100482.84
2023-03-06T00:56:20.365Z,100481.00
2023-03-06T00:57:52.778Z,100481.84
2023-03-06T00:59:24.671Z,100472.34
2023-03-06T01:00:57.519Z,100477.72
2023-03-06T01:02:29.180Z,100469.97
2023-03-06T01:04:00.899Z,100467.44
2023-03-06T01:05:34.267Z,100466.72
2023-03-06T01:07:05.822Z,100465.91
2023-03-06T01:08:37.548Z,100472.16
2023-03-06T01:10:09.990Z,100463.44
2023-03-06T01:11:43.256Z,100459.22
2023-03-06T01:13:15.856Z,100470.56
2023-03-06T01:14:47.475Z,100461.03
2023-03-06T01:16:19.797Z,100457.59
2023-03-06T01:17:54.372Z,100457.63
2023-03-06T01:19:26.188Z,100454.22
2023-03-06T01:20:57.797Z,100460.31
2023-03-06T01:22:29.670Z,100452.53
2023-03-06T01:24:01.245Z,100452.63
2023-03-06T01:25:32.812Z,100445.78
2023-03-06T01:27:05.825Z,100448.34
2023-03-06T01:28:37.792Z,100450.06
2023-03-06T01:30:09.926Z,100445.63
2023-03-06T01:31:42.754Z,100457.00
2023-03-06T01:33:14.469Z,100445.75
2023-03-06T01:34:46.043Z,100444.03
2023-03-06T01:36:17.731Z,100446.63
2023-03-06T01:37:50.170Z,100444.91
2023-03-06T01:39:22.109Z,100437.00
2023-03-06T01:40:55.007Z,100440.50
2023-03-06T01:42:28.057Z,100433.56
2023-03-06T01:43:59.629Z,100441.44
2023-03-06T01:45:49.621Z,100439.66
2023-03-06T01:47:21.259Z,100432.66
2023-03-06T01:48:54.846Z,100435.22
2023-03-06T01:50:26.510Z,100420.38
2023-03-06T01:52:00.610Z,100421.94
2023-03-06T01:53:32.378Z,100416.72
2023-03-06T01:55:06.106Z,100419.25
2023-03-06T01:56:39.011Z,100415.75
2023-03-06T01:58:14.078Z,100409.59
2023-03-06T01:59:47.913Z,100415.63
2023-03-06T02:01:19.775Z,100409.50
2023-03-06T02:02:53.805Z,100412.13
2023-03-06T02:04:25.428Z,100415.66
2023-03-06T02:05:58.804Z,100410.38
2023-03-06T02:07:30.793Z,100409.47
2023-03-06T02:09:04.388Z,100411.16
2023-03-06T02:10:36.037Z,100402.44
2023-03-06T02:12:09.456Z,100401.72
2023-03-06T02:13:43.174Z,100398.41
2023-03-06T02:15:16.085Z,100395.09
2023-03-06T02:16:47.953Z,100398.59
2023-03-06T02:18:19.579Z,100391.63
2023-03-06T02:19:55.571Z,100390.81
2023-03-06T02:21:28.649Z,100392.56
2023-03-06T02:23:04.140Z,100397.84
2023-03-06T02:24:39.914Z,100384.81
2023-03-06T02:26:13.614Z,100390.84
2023-03-06T02:27:45.230Z,100388.22
2023-03-06T02:29:20.272Z,100390.66
2023-03-06T02:30:52.854Z,100378.41
2023-03-06T02:32:24.455Z,100382.81
2023-03-06T02:34:03.245Z,100385.34
2023-03-06T02:35:35.548Z,100381.69
2023-03-06T02:37:09.084Z,100389.41
2023-03-06T02:38:44.040Z,100382.38
2023-03-06T02:40:17.392Z,100383.97
2023-03-06T02:41:50.486Z,100382.09
2023-03-06T02:43:25.772Z,100376.88
2023-03-06T02:44:59.217Z,100375.16
2023-03-06T02:46:30.912Z,100379.63
2023-03-06T02:48:03.105Z,100380.47
2023-03-06T02:49:34.716Z,100378.84
2023-03-06T02:51:06.363Z,100376.13
2023-03-06T02:52:37.969Z,100374.50
2023-03-06T02:54:09.788Z,100375.50
2023-03-06T02:55:41.408Z,100370.38
2023-03-06T02:57:16.114Z,100376.41
2023-03-06T02:58:47.910Z,100377.38
2023-03-06T03:00:20.114Z,100370.41
2023-03-06T03:01:51.816Z,100378.28
2023-03-06T03:03:23.499Z,100379.28
2023-03-06T03:04:57.897Z,100372.31
2023-03-06T03:06:30.053Z,100371.50
2023-03-06T03:08:02.154Z,100376.13
2023-03-06T03:09:37.249Z,100381.47
2023-03-06T03:11:09.378Z,100372.88
2023-03-06T03:12:50.504Z,100376.38
2023-03-06T03:14:24.230Z,100365.88
2023-03-06T03:15:59.856Z,100365.72
2023-03-06T03:17:31.559Z,100374.56
2023-03-06T03:19:03.241Z,100366.81
2023-03-06T03:20:35.956Z,100363.41
2023-03-06T03:22:07.922Z,100366.84
2023-03-06T03:23:39.556Z,100363.50
2023-03-06T03:25:11.324Z,100361.78
2023-03-06T03:26:42.935Z,100361.66
2023-03-06T03:28:20.526Z,100361.47
2023-03-06T03:29:56.705Z,100361.38
2023-03-06T03:31:28.612Z,100363.25
2023-03-06T03:33:00.417Z,100358.16
2023-03-06T03:34:32.174Z,100348.59
2023-03-06T03:36:05.609Z,100352.00
2023-03-06T03:37:38.825Z,100349.41
2023-03-06T03:39:10.603Z,100352.81
2023-03-06T03:40:42.591Z,100353.69
2023-03-06T03:42:14.305Z,100345.88
2023-03-06T03:43:47.316Z,100346.81
2023-03-06T03:45:19.008Z,100341.44
2023-03-06T03:46:50.737Z,100341.28
2023-03-06T03:48:25.929Z,100328.22
2023-03-06T03:49:57.684Z,100345.38
2023-03-06T03:51:29.910Z,100332.09
2023-03-06T03:53:03.418Z,100328.41
2023-03-06T03:54:35.244Z,100325.81
2023-03-06T03:56:07.096Z,100326.00
2023-03-06T03:57:44.615Z,100319.88
2023-03-06T03:59:18.458Z,100315.34
2023-03-06T04:01:09.098Z,100315.25
2023-03-06T04:02:42.509Z,100310.13
2023-03-06T04:04:21.647Z,100312.78
2023-03-06T04:05:57.942Z,100312.63
2023-03-06T04:07:30.368Z,100309.03
2023-03-06T04:09:02.097Z,100307.97
2023-03-06T04:10:34.437Z,100311.22
2023-03-06T04:12:07.843Z,100309.41
2023-03-06T04:13:41.227Z,100303.31
2023-03-06T04:15:14.169Z,100310.22
2023-03-06T04:16:46.021Z,100311.84
2023-03-06T04:18:17.807Z,100304.88
2023-03-06T04:19:50.221Z,100299.53
2023-03-06T04:21:22.107Z,100303.84
2023-03-06T04:22:53.704Z,100299.59
2023-03-06T04:24:26.182Z,100299.66
2023-03-06T04:25:57.829Z,100292.75
2023-03-06T04:27:29.426Z,100285.84
2023-03-06T04:29:00.976Z,100290.09
2023-03-06T04:30:35.003Z,100286.53
2023-03-06T04:32:14.478Z,100282.09
2023-03-06T04:33:46.094Z,100283.75
2023-03-06T04:35:18.079Z,100280.44
2023-03-06T04:36:58.760Z,100283.28
2023-03-06T04:38:31.017Z,100280.78
2023-03-06T04:40:02.725Z,100282.03
2023-03-06T04:41:35.106Z,100276.28
2023-03-06T04:43:06.825Z,100279.13
2023-03-06T04:44:38.781Z,100277.59
2023-03-06T04:46:12.064Z,100282.91
2023-03-06T04:47:43.626Z,100270.69
2023-03-06T04:49:15.264Z,100276.81
2023-03-06T04:50:46.885Z,100271.56
2023-03-06T04:52:18.435Z,100265.44
2023-03-06T04:53:50.149Z,100270.72
2023-03-06T04:55:22.527Z,100272.44
2023-03-06T04:56:54.187Z,100263.88
2023-03-06T04:58:25.920Z,100262.91
2023-03-06T04:59:57.603Z,100262.81
2023-03-06T05:01:30.528Z,100270.56
2023-03-06T05:03:02.580Z,100267.78
2023-03-06T05:04:34.174Z,100267.78
2023-03-06T05:06:06.037Z,100274.72
2023-03-06T05:07:38.088Z,100273.13
2023-03-06T05:09:09.695Z,100268.84
2023-03-06T05:10:41.399Z,100269.72
2023-03-06T05:12:13.007Z,100270.44
2023-03-06T05:13:44.608Z,100279.91
2023-03-06T05:15:16.437Z,100274.53
2023-03-06T05:16:50.904Z,100270.97
2023-03-06T05:18:22.528Z,100282.34
2023-03-06T05:19:54.136Z,100271.81
2023-03-06T05:21:25.703Z,100278.81
2023-03-06T05:22:57.341Z,100264.16
2023-03-06T05:24:28.995Z,100274.63
2023-03-06T05:26:00.668Z,100266.72
2023-03-06T05:27:32.501Z,100275.31
2023-03-06T05:29:04.155Z,100265.69
2023-03-06T05:30:36.752Z,100269.91
2023-03-06T05:32:09.929Z,100273.59
2023-03-06T05:33:41.656Z,100275.47
2023-03-06T05:35:16.819Z,100268.69
2023-03-06T05:36:48.462Z,100272.22
2023-03-06T05:38:20.247Z,100278.34
2023-03-06T05:39:53.453Z,100277.63
2023-03-06T05:41:25.318Z,100273.50
2023-03-06T05:42:56.897Z,100267.44
2023-03-06T05:44:30.603Z,100274.31
2023-03-06T05:46:02.945Z,100269.81
2023-03-06T05:47:36.111Z,100266.38
2023-03-06T05:49:07.861Z,100268.13
2023-03-06T05:50:41.843Z,100263.97
2023-03-06T05:52:13.787Z,100277.91
2023-03-06T05:53:45.400Z,100267.50
2023-03-06T05:55:19.506Z,100262.53
2023-03-06T05:56:51.534Z,100259.25
2023-03-06T05:58:23.186Z,100256.84
2023-03-06T05:59:54.920Z,100257.50
2023-03-06T06:01:28.453Z,100263.22
2023-03-06T06:03:02.818Z,100264.56
2023-03-06T06:04:34.676Z,100259.88
2023-03-06T06:06:07.127Z,100250.09
2023-03-06T06:07:39.108Z,100254.28
2023-03-06T06:09:13.482Z,100264.63
2023-03-06T06:10:45.500Z,100256.00
2023-03-06T06:12:17.143Z,100253.38
2023-03-06T06:13:49.446Z,100263.78
2023-03-06T06:15:21.150Z,100258.38
2023-03-06T06:16:53.278Z,100254.81
2023-03-06T06:18:26.360Z,100253.19
2023-03-06T06:19:57.992Z,100259.41
2023-03-06T06:21:29.604Z,100255.13
2023-03-06T06:23:01.289Z,100254.56
2023-03-06T06:24:32.957Z,100245.16
2023-03-06T06:26:07.936Z,100259.94
2023-03-06T06:27:41.028Z,100259.00
2023-03-06T06:29:13.330Z,100253.75
2023-03-06T06:30:45.167Z,100254.50
2023-03-06T06:32:16.881Z,100256.16
2023-03-06T06:33:49.922Z,100252.59
2023-03-06T06:35:21.938Z,100251.59
2023-03-06T06:37:03.384Z,100256.91
2023-03-06T06:38:44.368Z,100253.56
2023-03-06T06:40:16.094Z,100256.44
2023-03-06T06:42:00.081Z,100250.44
2023-03-06T06:43:40.341Z,100257.59
2023-03-06T06:45:12.648Z,100257.47
2023-03-06T06:48:37.762Z,100255.06
2023-03-06T06:50:13.195Z,100263.00
2023-03-06T06:51:45.085Z,100256.03
2023-03-06T06:53:17.199Z,100249.97
2023-03-06T06:54:48.829Z,100263.13
2023-03-06T06:56:20.517Z,100258.84
2023-03-06T06:57:52.119Z,100260.41
2023-03-06T06:59:23.950Z,100262.78
2023-03-06T07:00:55.603Z,100262.53
2023-03-06T07:02:27.323Z,100256.44
2023-03-06T07:03:58.956Z,100263.31
2023-03-06T07:05:32.439Z,100256.19
2023-03-06T07:07:04.112Z,100260.59
2023-03-06T07:08:37.083Z,100259.81
2023-03-06T07:10:12.253Z,100265.16
2023-03-06T07:11:44.014Z,100264.44
2023-03-06T07:13:15.665Z,100265.16
2023-03-06T07:14:48.397Z,100260.63
2023-03-06T07:16:20.180Z,100261.16
2023-03-06T07:17:51.843Z,100266.22
2023-03-06T07:19:23.462Z,100269.47
2023-03-06T07:20:56.840Z,100263.25
2023-03-06T07:22:31.956Z,100269.09
2023-03-06T07:24:08.020Z,100270.81
2023-03-06T07:25:40.083Z,100269.47
2023-03-06T07:27:12.243Z,100268.50
2023-03-06T07:28:52.440Z,100264.00
2023-03-06T07:30:24.659Z,100264.66
2023-03-06T07:31:56.348Z,100260.28
2023-03-06T07:33:28.341Z,100262.38
2023-03-06T07:35:17.577Z,100262.25
2023-03-06T07:36:52.393Z,100262.75
2023-03-06T07:38:24.085Z,100256.41
2023-03-06T07:39:55.835Z,100270.97
2023-03-06T07:41:27.638Z,100262.19
2023-03-06T07:43:16.921Z,100271.00
2023-03-06T07:44:54.034Z,100269.28
2023-03-06T07:46:25.617Z,100268.34
2023-03-06T07:47:58.063Z,100258.63
2023-03-06T07:49:29.776Z,100261.16
2023-03-06T07:51:02.420Z,100257.69
2023-03-06T07:52:35.495Z,100260.34
2023-03-06T07:54:09.092Z,100264.25
2023-03-06T07:55:41.747Z,100260.28
2023-03-06T07:57:13.649Z,100263.06
2023-03-06T07:58:45.824Z,100262.97
2023-03-06T08:00:17.651Z,100261.06
2023-03-06T08:01:49.525Z,100255.75
2023-03-06T08:03:21.273Z,100263.69
2023-03-06T08:04:53.597Z,100266.34
2023-03-06T08:06:27.328Z,100264.38
2023-03-06T08:08:02.005Z,100264.09
2023-03-06T08:09:35.147Z,100264.81
2023-03-06T08:11:07.252Z,100257.63
2023-03-06T08:12:38.925Z,100261.13
2023-03-06T08:14:10.761Z,100259.31
2023-03-06T08:15:47.251Z,100259.25
2023-03-06T08:17:18.943Z,100260.91
2023-03-06T08:18:50.965Z,100257.94
2023-03-06T08:20:22.838Z,100259.22
2023-03-06T08:21:54.667Z,100255.63
2023-03-06T08:23:27.988Z,100254.66
2023-03-06T08:24:59.750Z,100241.53
2023-03-06T08:26:34.448Z,100249.59
2023-03-06T08:28:08.673Z,100245.19
2023-03-06T08:29:40.323Z,100253.91
2023-03-06T08:31:13.461Z,100251.38
2023-03-06T08:32:45.173Z,100247.06
2023-03-06T08:34:20.005Z,100246.94
2023-03-06T08:35:52.354Z,100248.56
2023-03-06T08:37:24.234Z,100258.81
2023-03-06T08:38:57.662Z,100256.94
2023-03-06T08:40:30.554Z,100255.00
2023-03-06T08:42:02.260Z,100252.22
2023-03-06T08:43:35.906Z,100259.41
2023-03-06T08:45:11.235Z,100250.06
2023-03-06T08:46:43.069Z,100242.38
2023-03-06T08:48:14.901Z,100245.09
2023-03-06T08:49:46.588Z,100240.56
2023-03-06T08:51:18.797Z,100246.56
2023-03-06T08:52:50.404Z,100243.91
2023-03-06T08:54:24.216Z,100240.25
2023-03-06T08:55:55.999Z,100247.41
2023-03-06T08:57:27.812Z,100231.53
2023-03-06T08:59:00.743Z,100234.94
2023-03-06T09:00:32.871Z,100248.91
2023-03-06T09:02:05.651Z,100247.38
2023-03-06T09:03:37.541Z,100247.25
2023-03-06T09:05:09.693Z,100243.56
2023-03-06T09:06:45.190Z,100248.09
2023-03-06T09:08:17.890Z,100247.84
2023-03-06T09:09:51.219Z,100249.28
2023-03-06T09:11:23.702Z,100244.69
2023-03-06T09:12:55.500Z,100244.50
2023-03-06T09:14:27.176Z,100243.03
2023-03-06T09:16:04.572Z,100247.78
2023-03-06T09:17:36.858Z,100247.03
2023-03-06T09:19:09.070Z,100240.09
2023-03-06T09:20:40.688Z,100247.75
2023-03-06T09:22:12.458Z,100257.97
2023-03-06T09:23:44.097Z,100253.81
2023-03-06T09:25:20.475Z,100253.06
2023-03-06T09:26:52.642Z,100254.19
2023-03-06T09:28:24.909Z,100253.28
2023-03-06T09:29:56.883Z,100252.91
2023-03-06T09:31:28.696Z,100259.53
2023-03-06T09:33:00.515Z,100264.75
2023-03-06T09:34:32.163Z,100260.38
2023-03-06T09:36:04.578Z,100253.13
2023-03-06T09:37:36.631Z,100261.41
2023-03-06T09:39:09.513Z,100260.34
2023-03-06T09:40:53.081Z,100257.38
2023-03-06T09:42:25.138Z,100258.81
2023-03-06T09:44:04.891Z,100257.28
2023-03-06T09:45:37.121Z,100262.13
2023-03-06T09:47:20.333Z,100260.13
2023-03-06T09:49:02.645Z,100259.03
2023-03-06T09:50:38.846Z,100267.09
2023-03-06T09:52:26.169Z,100265.06
2023-03-06T09:54:05.267Z,100260.81
2023-03-06T09:55:38.349Z,100264.22
2023-03-06T09:57:17.333Z,100263.13
2023-03-06T09:58:50.774Z,100259.25
2023-03-06T10:00:25.111Z,100271.03
2023-03-06T10:02:00.286Z,100249.59
2023-03-06T10:03:36.734Z,100265.38
2023-03-06T10:05:13.488Z,100265.00
2023-03-06T10:06:48.488Z,100263.91
2023-03-06T10:08:24.116Z,100256.59
2023-03-06T10:09:58.207Z,100258.94
2023-03-06T10:11:33.186Z,100259.50
2023-03-06T10:13:16.641Z,100251.19
2023-03-06T10:14:53.950Z,100253.66
2023-03-06T10:16:26.842Z,100257.94
2023-03-06T10:17:58.548Z,100249.28
2023-03-06T10:19:33.269Z,100257.53
2023-03-06T10:21:18.742Z,100261.63
2023-03-06T10:23:01.056Z,100262.00
2023-03-06T10:24:49.684Z,100266.56
2023-03-06T10:26:24.324Z,100256.50
2023-03-06T10:27:58.220Z,100269.88
2023-03-06T10:29:35.860Z,100261.00
2023-03-06T10:31:11.678Z,100260.16
2023-03-06T10:32:49.205Z,100258.25
2023-03-06T10:34:22.420Z,100262.31
2023-03-06T10:35:55.475Z,100257.06
2023-03-06T10:37:32.610Z,100258.72
2023-03-06T10:39:10.990Z,100262.69
2023-03-06T10:40:47.457Z,100261.31
2023-03-06T10:42:19.387Z,100259.91
2023-03-06T10:44:24.387Z,100254.28
2023-03-06T10:45:57.939Z,100256.84
2023-03-06T10:47:30.559Z,100251.63
2023-03-06T10:49:03.036Z,100257.53
2023-03-06T10:50:34.767Z,100253.94
2023-03-06T10:52:18.774Z,100250.56
2023-03-06T10:53:52.742Z,100260.50
2023-03-06T10:55:26.376Z,100264.13
2023-03-06T10:56:58.099Z,100264.31
2023-03-06T10:58:31.748Z,100264.53
2023-03-06T11:00:05.601Z,100259.53
2023-03-06T11:01:39.620Z,100265.78
2023-03-06T11:03:19.763Z,100270.06
2023-03-06T11:04:52.530Z,100265.03
2023-03-06T11:06:31.454Z,100266.84
2023-03-06T11:08:04.168Z,100267.13
2023-03-06T11:09:37.374Z,100264.94
2023-03-06T11:11:11.124Z,100266.19
2023-03-06T11:12:46.784Z,100267.25
2023-03-06T11:14:19.415Z,100271.00
2023-03-06T11:15:56.961Z,100277.25
2023-03-06T11:17:32.214Z,100271.41
2023-03-06T11:19:07.016Z,100267.03
2023-03-06T11:20:51.063Z,100272.94
2023-03-06T11:22:23.413Z,100266.53
2023-03-06T11:23:57.792Z,100265.69
2023-03-06T11:25:33.007Z,100264.41
2023-03-06T11:27:13.580Z,100260.72
2023-03-06T11:28:47.216Z,100263.22
2023-03-06T11:30:20.156Z,100270.03
2023-03-06T11:31:55.075Z,100266.63
2023-03-06T11:33:30.901Z,100263.22
2023-03-06T11:35:04.279Z,100252.97
2023-03-06T11:36:38.620Z,100258.41
2023-03-06T11:38:14.470Z,100263.66
2023-03-06T11:39:49.571Z,100272.47
2023-03-06T11:41:26.810Z,100273.66
2023-03-06T11:43:07.321Z,100264.09
2023-03-06T11:44:47.861Z,100261.41
2023-03-06T11:46:22.855Z,100263.34
2023-03-06T11:48:00.235Z,100255.47
2023-03-06T11:49:40.137Z,100257.06
2023-03-06T11:51:14.298Z,100258.81
2023-03-06T11:52:52.509Z,100258.00
2023-03-06T11:54:26.623Z,100247.72
2023-03-06T11:55:59.963Z,100257.09
2023-03-06T11:57:35.318Z,100250.47
2023-03-06T11:59:14.432Z,100245.88
2023-03-06T12:00:50.407Z,100244.28
2023-03-06T12:02:30.878Z,100242.47
2023-03-06T12:04:23.308Z,100240.47
2023-03-06T12:06:01.162Z,100237.47
2023-03-06T12:07:35.953Z,100238.31
2023-03-06T12:09:18.991Z,100227.25
2023-03-06T12:10:52.172Z,100227.69
2023-03-06T12:12:53.972Z,100225.94
2023-03-06T12:14:32.639Z,100236.91
2023-03-06T12:16:17.149Z,100235.59
2023-03-06T12:18:10.041Z,100227.41
2023-03-06T12:19:46.898Z,100217.44
2023-03-06T12:21:24.897Z,100229.63
2023-03-06T12:23:15.064Z,100224.44
2023-03-06T12:25:18.199Z,100222.94
2023-03-06T12:27:00.572Z,100231.31
2023-03-06T12:28:37.286Z,100224.16
2023-03-06T12:30:35.701Z,100223.47
2023-03-06T12:32:22.956Z,100221.84
2023-03-06T12:34:02.581Z,100224.47
2023-03-06T12:35:44.767Z,100224.47
2023-03-06T12:37:21.628Z,100223.00
2023-03-06T12:39:01.719Z,100218.84
2023-03-06T12:40:44.164Z,100216.03
2023-03-06T12:42:23.598Z,100217.66
2023-03-06T12:44:06.641Z,100209.03
2023-03-06T12:45:39.054Z,100216.50
2023-03-06T12:47:12.432Z,100200.53
2023-03-06T12:48:48.638Z,100205.19
2023-03-06T12:50:22.770Z,100199.72
2023-03-06T12:51:55.377Z,100201.97
2023-03-06T12:53:29.841Z,100195.97
2023-03-06T12:55:04.734Z,100197.94
2023-03-06T12:56:36.558Z,100178.09
2023-03-06T12:58:26.697Z,100196.63
2023-03-06T12:59:58.529Z,100190.50
2023-03-06T13:01:37.543Z,100184.22
2023-03-06T13:03:16.424Z,100196.75
2023-03-06T13:05:00.784Z,100191.00
2023-03-06T13:06:50.792Z,100187.69
2023-03-06T13:08:37.827Z,100194.72
2023-03-06T13:10:15.467Z,100190.16
2023-03-06T13:11:58.619Z,100195.78
2023-03-06T13:13:31.848Z,100193.16
2023-03-06T13:15:18.419Z,100191.34
2023-03-06T13:16:50.448Z,100191.44
2023-03-06T13:18:54.547Z,100193.50
2023-03-06T13:20:43.049Z,100189.75
2023-03-06T13:22:15.811Z,100180.56
2023-03-06T13:23:53.513Z,100176.38
2023-03-06T13:25:46.817Z,100179.16
2023-03-06T13:27:41.378Z,100175.69
2023-03-06T13:29:30.580Z,100174.66
2023-03-06T13:31:02.571Z,100167.50
2023-03-06T13:32:35.109Z,100165.25
2023-03-06T13:34:29.722Z,100168.28
2023-03-06T13:36:19.362Z,100155.88
2023-03-06T13:37:52.868Z,100157.63
2023-03-06T13:39:27.110Z,100163.03
2023-03-06T13:41:13.848Z,100164.00
2023-03-06T13:43:02.598Z,100159.00
2023-03-06T13:44:43.748Z,100172.44
2023-03-06T13:46:24.690Z,100161.94
2023-03-06T13:49:49.510Z,100173.09
2023-03-06T13:51:26.415Z,100171.69
2023-03-06T13:53:13.013Z,100168.81
2023-03-06T13:54:51.942Z,100172.34
2023-03-06T13:56:41.945Z,100173.63
2023-03-06T13:58:29.787Z,100169.16
2023-03-06T14:00:15.115Z,100169.81
2023-03-06T14:01:52.755Z,100164.84
2023-03-06T14:03:36.794Z,100161.84
2023-03-06T14:05:12.056Z,100160.69
2023-03-06T14:06:52.971Z,100161.63
2023-03-06T14:08:26.090Z,100157.00
2023-03-06T14:10:01.212Z,100148.16
2023-03-06T14:11:33.472Z,100149.81
2023-03-06T14:13:06.612Z,100156.25
2023-03-06T14:14:41.750Z,100147.44
2023-03-06T14:16:18.508Z,100141.66
2023-03-06T14:17:56.423Z,100135.75
2023-03-06T14:19:31.176Z,100133.91
2023-03-06T14:21:04.641Z,100130.28
2023-03-06T14:22:38.133Z,100131.84
2023-03-06T14:24:14.549Z,100121.69
2023-03-06T14:25:47.710Z,100126.78
2023-03-06T14:27:19.339Z,100133.44
2023-03-06T14:28:54.974Z,100128.53
2023-03-06T14:30:26.867Z,100128.25
2023-03-06T14:31:59.552Z,100135.06
2023-03-06T14:33:33.555Z,100133.78
2023-03-06T14:35:05.648Z,100128.31
2023-03-06T14:36:45.730Z,100135.78
2023-03-06T14:38:20.158Z,100123.63
2023-03-06T14:39:52.353Z,100125.94
2023-03-06T14:41:25.788Z,100119.75
2023-03-06T14:43:10.235Z,100131.06
2023-03-06T14:44:42.387Z,100125.31
2023-03-06T14:46:18.688Z,100121.56
2023-03-06T14:47:52.384Z,100124.34
2023-03-06T14:49:25.371Z,100125.44
2023-03-06T14:51:02.487Z,100121.31
2023-03-06T14:52:34.477Z,100115.78
2023-03-06T14:54:12.937Z,100116.72
2023-03-06T14:55:48.642Z,100123.38
2023-03-06T14:57:22.965Z,100114.06
2023-03-06T14:58:56.379Z,100116.16
2023-03-06T15:00:32.380Z,100117.75
2023-03-06T15:02:05.605Z,100113.16
2023-03-06T15:03:42.744Z,100113.56
2023-03-06T15:05:19.717Z,100111.97
2023-03-06T15:06:51.757Z,100115.63
2023-03-06T15:08:27.664Z,100114.72
2023-03-06T15:10:01.139Z,100116.81
2023-03-06T15:11:52.269Z,100117.34
2023-03-06T15:13:24.883Z,100099.50
2023-03-06T15:14:57.877Z,100092.50
2023-03-06T15:16:32.768Z,100096.41
2023-03-06T15:18:19.305Z,100099.16
2023-03-06T15:19:51.900Z,100104.56
2023-03-06T15:21:24.662Z,100109.47
2023-03-06T15:22:56.212Z,100098.41
2023-03-06T15:24:32.373Z,100093.50
2023-03-06T15:26:18.518Z,100103.56
2023-03-06T15:27:51.584Z,100108.16
2023-03-06T15:29:24.958Z,100106.44
2023-03-06T15:31:22.101Z,100093.66
2023-03-06T15:33:08.600Z,100111.22
2023-03-06T15:34:40.364Z,100099.34
2023-03-06T15:36:19.683Z,100097.94
2023-03-06T15:37:51.708Z,100097.63
2023-03-06T15:39:27.743Z,100092.88
2023-03-06T15:41:00.759Z,100096.63
2023-03-06T15:42:36.017Z,100085.66
2023-03-06T15:44:11.431Z,100096.44
2023-03-06T15:45:49.514Z,100092.16
2023-03-06T15:47:31.975Z,100094.03
2023-03-06T15:49:13.655Z,100099.44
2023-03-06T15:50:45.296Z,100093.47
2023-03-06T15:52:20.694Z,100104.25
2023-03-06T15:53:55.016Z,100082.44
2023-03-06T15:55:26.955Z,100084.78
2023-03-06T15:56:59.356Z,100091.44
2023-03-06T15:58:35.126Z,100080.63
2023-03-06T16:00:26.386Z,100081.03
2023-03-06T16:02:00.296Z,100077.31
2023-03-06T16:03:32.211Z,100078.16
2023-03-06T16:05:10.430Z,100072.19
2023-03-06T16:06:42.344Z,100077.06
2023-03-06T16:08:15.002Z,100071.44
2023-03-06T16:09:47.422Z,100059.97
2023-03-06T16:11:26.026Z,100054.81
2023-03-06T16:13:02.558Z,100067.63
2023-03-06T16:14:44.768Z,100060.00
2023-03-06T16:16:23.043Z,100055.75
2023-03-06T16:17:54.911Z,100061.13
2023-03-06T16:19:27.899Z,100054.19
2023-03-06T16:21:02.075Z,100064.31
2023-03-06T16:22:33.728Z,100052.06
2023-03-06T16:24:05.438Z,100055.75
2023-03-06T16:25:38.261Z,100055.91
2023-03-06T16:27:15.224Z,100056.13
2023-03-06T16:28:47.476Z,100057.22
2023-03-06T16:30:21.522Z,100055.63
2023-03-06T16:31:55.220Z,100047.91
2023-03-06T16:33:26.844Z,100057.78
2023-03-06T16:34:58.450Z,100050.88
2023-03-06T16:36:32.364Z,100055.22
2023-03-06T16:38:04.225Z,100055.22
2023-03-06T16:39:35.870Z,100056.31
2023-03-06T16:41:07.500Z,100061.59
2023-03-06T16:42:39.287Z,100053.19
2023-03-06T16:44:11.468Z,100052.50
2023-03-06T16:45:45.520Z,100054.44
2023-03-06T16:47:17.385Z,100051.06
2023-03-06T16:48:49.300Z,100053.72
2023-03-06T16:50:24.744Z,100046.94
2023-03-06T16:51:56.396Z,100050.56
2023-03-06T16:53:28.551Z,100046.22
2023-03-06T16:55:00.142Z,100043.66
2023-03-06T16:56:31.696Z,100045.53
2023-03-06T16:58:03.324Z,100044.72
2023-03-06T16:59:35.156Z,100043.22
2023-03-06T17:01:09.707Z,100047.81
2023-03-06T17:02:41.945Z,100048.88
2023-03-06T17:04:13.588Z,100043.88
2023-03-06T17:05:45.411Z,100045.75
2023-03-06T17:07:17.085Z,100038.81
2023-03-06T17:08:49.249Z,100043.25
2023-03-06T17:10:23.231Z,100038.94
2023-03-06T17:11:54.894Z,100032.84
2023-03-06T17:13:26.553Z,100034.66
2023-03-06T17:14:58.176Z,100025.16
2023-03-06T17:16:31.344Z,100025.16
2023-03-06T17:18:02.927Z,100030.28
2023-03-06T17:19:34.545Z,100020.69
2023-03-06T17:21:07.391Z,100024.97
2023-03-06T17:22:39.156Z,100025.78
2023-03-06T17:24:10.855Z,100022.25
2023-03-06T17:25:42.528Z,100026.63
2023-03-06T17:27:14.290Z,100024.03
2023-03-06T17:28:47.769Z,100019.59
2023-03-06T17:30:19.413Z,100022.22
2023-03-06T17:31:52.444Z,100017.75
2023-03-06T17:33:24.018Z,100032.47
2023-03-06T17:34:55.942Z,100024.63
2023-03-06T17:36:28.036Z,100021.03
2023-03-06T17:37:59.824Z,100022.78
2023-03-06T17:39:32.498Z,100018.47
2023-03-06T17:41:04.689Z,100025.41
2023-03-06T17:42:36.792Z,100024.59
2023-03-06T17:44:12.070Z,100029.78
2023-03-06T17:45:43.805Z,100028.06
2023-03-06T17:47:16.991Z,100028.06
2023-03-06T17:48:48.592Z,100022.84
2023-03-06T17:50:20.971Z,100027.97
2023-03-06T17:51:52.753Z,100017.50
2023-03-06T17:53:24.599Z,100020.00
2023-03-06T17:54:56.621Z,100015.66
2023-03-06T17:56:28.321Z,100025.25
2023-03-06T17:57:59.995Z,100018.28
2023-03-06T17:59:34.176Z,100018.28
2023-03-06T18:01:10.884Z,100020.22
2023-03-06T18:02:45.748Z,100003.72
2023-03-06T18:04:17.781Z,100014.97